createdAt,value
2022-08-17T00:00:34.981Z,7.80
2022-08-17T00:03:11.170Z,7.60
2022-08-17T00:05:51.013Z,7.18
2022-08-17T00:08:23.359Z,7.10
2022-08-17T00:10:51.128Z,7.10
2022-08-17T00:13:25.631Z,6.65
2022-08-17T00:15:55.509Z,6.65
2022-08-17T00:19:01.587Z,7.03
2022-08-17T00:21:10.784Z,6.53
2022-08-17T00:23:38.159Z,7.57
2022-08-17T00:26:04.963Z,6.72
2022-08-17T00:28:33.379Z,7.60
2022-08-17T00:31:00.403Z,6.78
2022-08-17T00:33:30.234Z,6.63
2022-08-17T00:35:58.550Z,6.72
2022-08-17T00:38:26.501Z,9.85
2022-08-17T00:41:02.592Z,9.57
2022-08-17T00:43:32.236Z,8.57
2022-08-17T00:46:00.782Z,6.47
2022-08-17T00:48:30.102Z,7.07
2022-08-17T00:51:31.301Z,8.25
2022-08-17T00:54:14.017Z,8.52
2022-08-17T00:56:59.473Z,7.43
2022-08-17T00:59:33.244Z,7.85
2022-08-17T01:02:01.253Z,8.43
2022-08-17T01:04:29.806Z,7.38
2022-08-17T01:06:58.609Z,6.85
2022-08-17T01:09:25.911Z,7.22
2022-08-17T01:11:52.551Z,8.15
2022-08-17T01:14:22.288Z,7.97
2022-08-17T01:16:51.369Z,7.50
2022-08-17T01:19:24.643Z,6.88
2022-08-17T01:22:06.953Z,7.57
2022-08-17T01:24:35.292Z,7.40
2022-08-17T01:27:02.614Z,7.32
2022-08-17T01:29:39.263Z,6.47
2022-08-17T01:32:07.651Z,7.07
2022-08-17T01:34:42.395Z,8.25
2022-08-17T01:37:11.384Z,7.60
2022-08-17T01:39:43.579Z,7.38
2022-08-17T01:42:31.238Z,6.60
2022-08-17T01:45:07.768Z,6.80
2022-08-17T01:47:36.059Z,7.68
2022-08-17T01:50:16.496Z,7.93
2022-08-17T01:52:49.241Z,8.07
2022-08-17T01:55:23.405Z,6.82
2022-08-17T01:57:52.710Z,6.95
2022-08-17T02:00:19.349Z,7.50
2022-08-17T02:02:46.132Z,7.93
2022-08-17T02:05:13.672Z,8.10
2022-08-17T02:07:59.630Z,8.43
2022-08-17T02:10:33.898Z,9.20
2022-08-17T02:13:02.250Z,7.47
2022-08-17T02:15:29.078Z,8.18
2022-08-17T02:17:55.709Z,7.55
2022-08-17T02:20:42.018Z,9.00
2022-08-17T02:23:11.923Z,9.13
2022-08-17T02:25:43.277Z,9.98
2022-08-17T02:28:10.614Z,8.07
2022-08-17T02:31:02.253Z,9.00
2022-08-17T02:33:24.915Z,9.20
2022-08-17T02:36:09.581Z,8.88
2022-08-17T02:38:37.689Z,8.95
2022-08-17T02:41:04.989Z,8.65
2022-08-17T02:43:32.337Z,9.00
2022-08-17T02:45:58.921Z,9.45
2022-08-17T02:48:30.717Z,9.07
2022-08-17T02:50:58.021Z,9.07
2022-08-17T02:53:24.761Z,8.82
2022-08-17T02:55:52.559Z,10.48
2022-08-17T02:58:34.423Z,9.55
2022-08-17T03:01:01.561Z,9.23
2022-08-17T03:03:28.285Z,9.35
2022-08-17T03:05:54.876Z,8.05
2022-08-17T03:08:23.170Z,7.97
2022-08-17T03:10:51.887Z,7.13
2022-08-17T03:13:18.551Z,7.55
2022-08-17T03:15:46.991Z,7.72
2022-08-17T03:18:24.593Z,7.65
2022-08-17T03:20:56.280Z,7.18
2022-08-17T03:23:25.457Z,8.45
2022-08-17T03:25:53.739Z,9.10
2022-08-17T03:28:22.142Z,9.52
2022-08-17T03:30:49.289Z,7.85
2022-08-17T03:33:16.816Z,7.25
2022-08-17T03:35:43.571Z,8.05
2022-08-17T03:38:12.487Z,7.07
2022-08-17T03:40:57.565Z,7.90
2022-08-17T03:43:30.834Z,9.23
2022-08-17T03:46:28.217Z,8.90
2022-08-17T03:49:19.367Z,9.68
2022-08-17T03:52:04.716Z,8.25
2022-08-17T03:54:50.205Z,8.73
2022-08-17T03:57:16.943Z,8.65
2022-08-17T03:59:45.073Z,7.75
2022-08-17T04:02:18.801Z,7.70
2022-08-17T04:04:45.563Z,9.30
2022-08-17T04:07:12.268Z,9.90
2022-08-17T04:09:38.957Z,9.50
2022-08-17T04:12:05.776Z,10.05
2022-08-17T04:14:52.149Z,10.98
2022-08-17T04:17:28.197Z,9.00
2022-08-17T04:19:56.188Z,9.63
2022-08-17T04:22:31.184Z,9.48
2022-08-17T04:25:16.511Z,11.57
2022-08-17T04:27:43.250Z,11.32
2022-08-17T04:30:10.530Z,10.38
2022-08-17T04:33:07.372Z,10.77
2022-08-17T04:35:50.004Z,11.63
2022-08-17T04:38:24.348Z,10.32
2022-08-17T04:41:10.854Z,11.15
2022-08-17T04:43:39.327Z,9.48
2022-08-17T04:46:10.664Z,11.30
2022-08-17T04:48:40.744Z,10.10
2022-08-17T04:51:09.551Z,9.00
2022-08-17T04:53:36.967Z,9.77
2022-08-17T04:56:04.320Z,9.88
2022-08-17T04:58:30.993Z,10.00
2022-08-17T05:00:57.835Z,10.27
2022-08-17T05:03:24.755Z,10.77
2022-08-17T05:05:51.384Z,10.90
2022-08-17T05:08:20.433Z,11.48
2022-08-17T05:10:48.070Z,12.55
2022-08-17T05:13:18.129Z,11.73
2022-08-17T05:15:47.853Z,13.55
2022-08-17T05:18:15.944Z,13.15
2022-08-17T05:20:42.822Z,14.80
2022-08-17T05:23:16.333Z,13.10
2022-08-17T05:25:47.449Z,13.50
2022-08-17T05:28:16.748Z,12.93
2022-08-17T05:30:45.740Z,13.30
2022-08-17T05:33:19.264Z,13.40
2022-08-17T05:35:48.474Z,13.10
2022-08-17T05:38:17.093Z,13.80
2022-08-17T05:40:44.582Z,14.57
2022-08-17T05:43:27.028Z,14.18
2022-08-17T05:46:15.365Z,14.45
2022-08-17T05:48:45.233Z,14.55
2022-08-17T05:51:14.516Z,14.35
2022-08-17T05:54:00.556Z,14.50
2022-08-17T05:56:58.908Z,14.27
2022-08-17T05:59:50.485Z,12.05
2022-08-17T06:02:26.297Z,12.70
2022-08-17T06:05:17.065Z,15.60
2022-08-17T06:07:46.625Z,15.05
2022-08-17T06:10:23.548Z,13.98
2022-08-17T06:13:03.229Z,15.88
2022-08-17T06:15:39.796Z,13.40
2022-08-17T06:18:09.466Z,14.52
2022-08-17T06:21:09.809Z,13.77
2022-08-17T06:24:10.431Z,14.40
2022-08-17T06:26:43.202Z,14.57
2022-08-17T06:29:18.595Z,15.00
2022-08-17T06:31:46.029Z,14.18
2022-08-17T06:34:12.967Z,15.07
2022-08-17T06:36:58.027Z,13.27
2022-08-17T06:39:28.529Z,15.07
2022-08-17T06:43:00.874Z,14.65
2022-08-17T06:45:37.509Z,12.32
2022-08-17T06:48:25.346Z,13.82
2022-08-17T06:51:00.661Z,12.88
2022-08-17T06:53:35.393Z,13.68
2022-08-17T06:56:09.888Z,12.20
2022-08-17T06:58:38.814Z,14.50
2022-08-17T07:01:20.910Z,12.73
2022-08-17T07:04:12.103Z,13.48
2022-08-17T07:06:56.884Z,11.13
2022-08-17T07:09:33.954Z,12.32
2022-08-17T07:12:22.164Z,12.27
2022-08-17T07:14:59.539Z,11.38
2022-08-17T07:17:47.307Z,11.73
2022-08-17T07:20:22.508Z,12.07
2022-08-17T07:23:00.450Z,11.68
2022-08-17T07:25:28.476Z,11.73
2022-08-17T07:28:00.165Z,11.00
2022-08-17T07:30:56.082Z,11.50
2022-08-17T07:33:26.451Z,11.20
2022-08-17T07:35:53.963Z,12.32
2022-08-17T07:44:15.264Z,11.00
2022-08-17T07:47:10.820Z,9.02
2022-08-17T07:49:41.776Z,10.13
2022-08-17T07:52:47.613Z,9.25
2022-08-17T07:54:58.098Z,10.13
2022-08-17T07:57:33.740Z,8.80
2022-08-17T08:00:01.284Z,8.52
2022-08-17T08:02:38.582Z,9.07
2022-08-17T08:05:13.330Z,7.70
2022-08-17T08:07:51.973Z,8.45
2022-08-17T08:10:42.813Z,8.27
2022-08-17T08:13:32.378Z,7.32
2022-08-17T08:16:13.681Z,8.10
2022-08-17T08:18:54.348Z,8.35
2022-08-17T08:21:29.022Z,7.15
2022-08-17T08:24:12.182Z,7.70
2022-08-17T08:27:00.449Z,7.00
2022-08-17T08:30:04.875Z,7.43
2022-08-17T08:32:50.373Z,6.32
2022-08-17T08:35:30.796Z,6.57
2022-08-17T08:38:03.341Z,6.72
2022-08-17T08:41:13.430Z,6.55
2022-08-17T08:43:55.142Z,6.43
2022-08-17T08:46:50.259Z,6.03
2022-08-17T08:50:03.797Z,6.22
2022-08-17T08:52:56.906Z,6.28
2022-08-17T08:55:56.122Z,6.32
2022-08-17T08:58:50.570Z,6.40
2022-08-17T09:01:35.355Z,5.60
2022-08-17T09:05:02.673Z,6.05
2022-08-17T09:07:36.169Z,5.82
2022-08-17T09:10:22.280Z,5.78
2022-08-17T09:13:15.058Z,6.03
2022-08-17T09:15:49.585Z,5.72
2022-08-17T09:19:00.481Z,5.40
2022-08-17T09:21:35.903Z,5.60
2022-08-17T09:24:26.358Z,5.85
2022-08-17T09:27:02.741Z,5.15
2022-08-17T09:29:36.481Z,5.32
2022-08-17T09:32:14.842Z,5.75
2022-08-17T09:34:50.869Z,5.30
2022-08-17T09:37:33.521Z,6.18
2022-08-17T09:40:08.939Z,5.22
2022-08-17T09:42:50.127Z,6.70
2022-08-17T09:45:39.060Z,5.68
2022-08-17T09:48:08.593Z,5.68
2022-08-17T09:51:07.761Z,5.55
2022-08-17T09:53:38.666Z,5.28
2022-08-17T09:56:46.339Z,5.38
2022-08-17T09:59:45.441Z,6.03
2022-08-17T10:02:53.418Z,5.68
2022-08-17T10:05:46.249Z,5.55
2022-08-17T10:08:22.907Z,5.50
2022-08-17T10:11:08.937Z,5.50
2022-08-17T10:13:59.478Z,5.15
2022-08-17T10:16:59.220Z,5.55
2022-08-17T10:19:39.346Z,5.47
2022-08-17T10:22:39.209Z,5.88
2022-08-17T10:25:42.636Z,5.85
2022-08-17T10:28:22.817Z,6.07
2022-08-17T10:31:10.723Z,5.50
2022-08-17T10:34:17.247Z,5.80
2022-08-17T10:37:04.595Z,5.65
2022-08-17T10:39:52.043Z,6.00
2022-08-17T10:42:33.676Z,6.10
2022-08-17T10:45:30.944Z,5.95
2022-08-17T10:48:06.250Z,5.60
2022-08-17T10:51:07.531Z,5.90
2022-08-17T10:53:40.596Z,6.07
2022-08-17T10:56:18.654Z,5.97
2022-08-17T10:59:01.275Z,5.40
2022-08-17T11:01:34.442Z,5.72
2022-08-17T11:04:21.285Z,5.97
2022-08-17T11:07:06.509Z,6.30
2022-08-17T11:10:03.100Z,6.07
2022-08-17T11:13:07.236Z,5.90
2022-08-17T11:16:08.851Z,5.50
2022-08-17T11:18:48.537Z,5.90
2022-08-17T11:21:41.651Z,5.63
2022-08-17T11:24:17.506Z,5.28
2022-08-17T11:27:00.788Z,5.90
2022-08-17T11:29:38.913Z,6.05
2022-08-17T11:32:14.952Z,4.97
2022-08-17T11:34:44.467Z,5.53
2022-08-17T11:37:36.195Z,5.10
2022-08-17T11:40:27.802Z,5.32
2022-08-17T11:43:25.352Z,5.93
2022-08-17T11:47:10.301Z,5.35
2022-08-17T11:50:11.745Z,5.32
2022-08-17T11:52:38.449Z,5.20
2022-08-17T11:55:33.536Z,4.85
2022-08-17T11:58:00.883Z,5.18
2022-08-17T12:00:49.743Z,4.90
2022-08-17T12:03:54.492Z,5.38
2022-08-17T12:06:54.784Z,4.70
2022-08-17T12:09:24.964Z,4.88
2022-08-17T12:12:12.481Z,4.68
2022-08-17T12:15:08.932Z,4.75
2022-08-17T12:17:41.471Z,5.25
2022-08-17T12:20:33.241Z,4.68
2022-08-17T12:23:13.769Z,4.50
2022-08-17T12:25:56.633Z,4.88
2022-08-17T12:28:28.987Z,4.03
2022-08-17T12:31:02.423Z,4.90
2022-08-17T12:33:29.475Z,4.57
2022-08-17T12:36:04.099Z,4.85
2022-08-17T12:38:34.419Z,4.10
2022-08-17T12:41:22.441Z,4.18
2022-08-17T12:44:15.524Z,5.18
2022-08-17T12:47:04.563Z,4.90
2022-08-17T12:49:37.414Z,4.85
2022-08-17T12:52:20.253Z,4.95
2022-08-17T12:54:49.532Z,4.40
2022-08-17T12:57:21.132Z,4.90
2022-08-17T12:59:53.072Z,4.78
2022-08-17T13:02:48.168Z,4.60
2022-08-17T13:05:22.470Z,5.05
2022-08-17T13:07:49.510Z,5.20
2022-08-17T13:10:32.709Z,4.72
2022-08-17T13:13:04.807Z,4.57
2022-08-17T13:15:44.640Z,5.00
2022-08-17T13:18:36.121Z,4.45
2022-08-17T13:21:03.011Z,4.53
2022-08-17T13:23:32.302Z,4.50
2022-08-17T13:26:05.393Z,4.43
2022-08-17T13:28:36.061Z,4.18
2022-08-17T13:31:28.038Z,4.88
2022-08-17T13:34:16.549Z,4.90
2022-08-17T13:36:46.669Z,4.43
2022-08-17T13:39:20.089Z,4.25
2022-08-17T13:41:48.561Z,4.38
2022-08-17T13:44:37.576Z,5.32
2022-08-17T13:47:15.807Z,4.72
2022-08-17T13:49:48.861Z,4.43
2022-08-17T13:52:38.810Z,4.95
2022-08-17T13:55:26.285Z,4.70
2022-08-17T13:58:03.589Z,5.00
2022-08-17T14:00:36.446Z,4.90
2022-08-17T14:03:04.942Z,5.28
2022-08-17T14:05:32.385Z,4.68
2022-08-17T14:08:02.148Z,4.53
2022-08-17T14:10:35.745Z,4.50
2022-08-17T14:13:02.617Z,5.10
2022-08-17T14:15:55.400Z,4.95
2022-08-17T14:18:17.945Z,4.57
2022-08-17T14:21:02.381Z,4.70
2022-08-17T14:23:35.145Z,4.72
2022-08-17T14:26:02.014Z,4.50
2022-08-17T14:28:28.653Z,4.85
2022-08-17T14:30:55.478Z,4.85
2022-08-17T14:33:24.593Z,5.35
2022-08-17T14:35:53.405Z,4.95
2022-08-17T14:38:20.976Z,4.78
2022-08-17T14:40:49.072Z,4.82
2022-08-17T14:43:15.867Z,5.43
2022-08-17T14:45:43.058Z,5.53
2022-08-17T14:48:10.236Z,4.63
2022-08-17T14:50:42.856Z,4.85
2022-08-17T14:53:11.617Z,4.75
2022-08-17T14:55:40.615Z,4.90
2022-08-17T14:58:08.644Z,5.32
2022-08-17T15:00:35.821Z,5.22
2022-08-17T15:03:02.589Z,5.90
2022-08-17T15:05:33.386Z,4.90
2022-08-17T15:08:01.135Z,5.68
2022-08-17T15:10:29.203Z,5.30
2022-08-17T15:12:56.164Z,5.53
2022-08-17T15:15:23.195Z,4.93
2022-08-17T15:17:51.540Z,5.78
2022-08-17T15:20:21.406Z,5.45
2022-08-17T15:22:55.567Z,5.70
2022-08-17T15:25:24.016Z,6.22
2022-08-17T15:27:51.301Z,5.45
2022-08-17T15:30:18.597Z,6.15
2022-08-17T15:32:45.756Z,6.00
2022-08-17T15:35:18.703Z,5.60
2022-08-17T15:37:46.874Z,5.40
2022-08-17T15:40:13.625Z,5.72
2022-08-17T15:42:40.924Z,5.43
2022-08-17T15:45:13.218Z,5.80
2022-08-17T15:47:40.601Z,4.80
2022-08-17T15:50:08.652Z,5.95
2022-08-17T15:52:40.497Z,5.50
2022-08-17T15:55:10.945Z,6.07
2022-08-17T15:57:37.577Z,5.78
2022-08-17T16:00:07.470Z,6.68
2022-08-17T16:03:45.351Z,6.03
2022-08-17T16:05:25.180Z,5.78
2022-08-17T16:07:53.227Z,6.22
2022-08-17T16:10:20.933Z,5.28
2022-08-17T16:12:48.916Z,5.40
2022-08-17T16:15:16.914Z,5.60
2022-08-17T16:17:43.493Z,5.70
2022-08-17T16:20:19.895Z,5.28
2022-08-17T16:22:48.692Z,5.38
2022-08-17T16:25:20.116Z,6.28
2022-08-17T16:27:49.283Z,7.20
2022-08-17T16:30:17.561Z,7.05
2022-08-17T16:32:44.797Z,5.97
2022-08-17T16:35:17.293Z,5.82
2022-08-17T16:37:45.680Z,6.25
2022-08-17T16:40:16.118Z,5.45
2022-08-17T16:42:43.245Z,6.15
2022-08-17T16:45:15.275Z,5.38
2022-08-17T16:47:42.244Z,5.68
2022-08-17T16:50:11.626Z,5.15
2022-08-17T16:52:39.164Z,4.95
2022-08-17T16:55:08.484Z,5.30
2022-08-17T16:57:37.285Z,5.35
2022-08-17T17:00:16.412Z,4.70
2022-08-17T17:02:47.087Z,5.22
2022-08-17T17:05:32.718Z,5.10
2022-08-17T17:08:20.428Z,5.57
2022-08-17T17:10:49.993Z,5.25
2022-08-17T17:13:40.330Z,5.28
2022-08-17T17:16:18.900Z,5.25
2022-08-17T17:19:14.179Z,5.97
2022-08-17T17:21:48.041Z,5.90
2022-08-17T17:24:23.378Z,5.45
2022-08-17T17:27:19.176Z,6.07
2022-08-17T17:30:01.230Z,5.53
2022-08-17T17:32:38.012Z,7.28
2022-08-17T17:35:11.095Z,5.55
2022-08-17T17:37:39.644Z,6.43
2022-08-17T17:40:37.101Z,6.85
2022-08-17T17:43:34.946Z,6.90
2022-08-17T17:46:26.513Z,6.00
2022-08-17T17:48:50.162Z,6.18
2022-08-17T17:52:07.809Z,6.25
2022-08-17T17:55:00.480Z,5.80
2022-08-17T17:57:51.134Z,6.30
2022-08-17T18:00:23.491Z,6.35
2022-08-17T18:03:27.417Z,5.57
2022-08-17T18:06:04.702Z,6.13
2022-08-17T18:09:11.632Z,6.10
2022-08-17T18:12:04.568Z,6.05
2022-08-17T18:14:52.850Z,6.50
2022-08-17T18:17:20.256Z,5.90
2022-08-17T18:19:47.185Z,5.55
2022-08-17T18:22:20.108Z,5.72
2022-08-17T18:24:53.963Z,5.60
2022-08-17T18:27:23.362Z,5.70
2022-08-17T18:29:53.317Z,5.97
2022-08-17T18:32:24.906Z,5.75
2022-08-17T18:34:59.563Z,5.68
2022-08-17T18:37:33.101Z,5.50
2022-08-17T18:40:16.466Z,6.07
2022-08-17T18:42:45.694Z,5.75
2022-08-17T18:45:13.487Z,5.28
2022-08-17T18:47:55.213Z,5.22
2022-08-17T18:50:35.287Z,5.00
2022-08-17T18:53:37.912Z,5.65
2022-08-17T18:56:19.892Z,5.47
2022-08-17T18:59:09.904Z,5.63
2022-08-17T19:01:59.865Z,3.10
2022-08-17T19:04:32.785Z,2.70
2022-08-17T19:07:22.024Z,2.47
2022-08-17T19:09:53.416Z,1.88
2022-08-17T19:12:48.708Z,2.75
2022-08-17T19:15:21.367Z,2.58
2022-08-17T19:17:57.289Z,2.45
2022-08-17T19:20:34.403Z,2.30
2022-08-17T19:23:28.984Z,2.47
2022-08-17T19:25:59.166Z,2.50
2022-08-17T19:28:44.177Z,2.47
2022-08-17T19:31:23.957Z,2.75
2022-08-17T19:33:50.895Z,2.97
2022-08-17T19:36:21.461Z,2.90
2022-08-17T19:39:00.774Z,3.10
2022-08-17T19:41:44.349Z,3.38
2022-08-17T19:44:39.249Z,3.30
2022-08-17T19:48:04.987Z,4.03
2022-08-17T19:50:23.460Z,4.35
2022-08-17T19:53:09.515Z,4.90
2022-08-17T19:55:56.096Z,4.95
2022-08-17T19:58:51.719Z,5.00
2022-08-17T20:01:41.116Z,5.55
2022-08-17T20:04:32.393Z,5.03
2022-08-17T20:07:24.228Z,4.97
2022-08-17T20:09:58.156Z,5.57
2022-08-17T20:12:30.432Z,5.68
2022-08-17T20:15:23.877Z,5.40
2022-08-17T20:17:50.961Z,5.80
2022-08-17T20:20:26.763Z,5.28
2022-08-17T20:23:11.337Z,5.53
2022-08-17T20:26:19.768Z,5.57
2022-08-17T20:29:05.143Z,5.65
2022-08-17T20:31:49.361Z,5.45
2022-08-17T20:34:37.483Z,5.45
2022-08-17T20:37:27.773Z,5.88
2022-08-17T20:39:57.402Z,5.55
2022-08-17T20:42:23.989Z,6.30
2022-08-17T20:45:26.938Z,5.35
2022-08-17T20:48:26.073Z,5.45
2022-08-17T20:50:51.693Z,6.25
2022-08-17T20:53:46.249Z,6.18
2022-08-17T20:56:44.930Z,5.82
2022-08-17T20:59:20.609Z,5.63
2022-08-17T21:02:03.720Z,6.40
2022-08-17T21:04:54.726Z,5.60
2022-08-17T21:07:42.822Z,5.60
2022-08-17T21:10:21.336Z,6.43
2022-08-17T21:13:13.363Z,5.57
2022-08-17T21:15:58.929Z,5.18
2022-08-17T21:18:53.816Z,6.25
2022-08-17T21:21:50.825Z,5.93
2022-08-17T21:24:35.572Z,5.45
2022-08-17T21:27:20.280Z,5.30
2022-08-17T21:30:01.845Z,5.18
2022-08-17T21:32:40.410Z,5.13
2022-08-17T21:35:12.061Z,4.65
2022-08-17T21:37:48.167Z,4.45
2022-08-17T21:40:18.286Z,5.10
2022-08-17T21:42:51.317Z,4.75
2022-08-17T21:45:31.638Z,5.28
2022-08-17T21:48:19.491Z,4.45
2022-08-17T21:50:59.033Z,5.25
2022-08-17T21:53:33.888Z,5.25
2022-08-17T21:56:00.838Z,4.75
2022-08-17T21:58:31.868Z,4.53
2022-08-17T22:01:20.922Z,4.70
2022-08-17T22:04:16.997Z,4.90
2022-08-17T22:06:52.409Z,5.72
2022-08-17T22:09:29.501Z,4.90
2022-08-17T22:12:15.948Z,4.75
2022-08-17T22:14:52.754Z,4.70
2022-08-17T22:17:36.800Z,4.90
2022-08-17T22:20:07.854Z,4.63
2022-08-17T22:23:17.981Z,4.75
2022-08-17T22:26:01.437Z,4.88
2022-08-17T22:28:39.583Z,3.78
2022-08-17T22:31:08.913Z,4.78
2022-08-17T22:33:41.074Z,4.63
2022-08-17T22:36:13.751Z,4.38
2022-08-17T22:38:43.583Z,3.92
2022-08-17T22:41:31.669Z,4.13
2022-08-17T22:44:07.976Z,4.28
2022-08-17T22:46:40.105Z,4.13
2022-08-17T22:49:07.419Z,4.10
2022-08-17T22:51:34.078Z,3.20
2022-08-17T22:54:34.096Z,4.13
2022-08-17T22:57:22.629Z,4.18
2022-08-17T22:59:52.741Z,3.60
2022-08-17T23:02:22.367Z,3.33
2022-08-17T23:04:53.056Z,3.65
2022-08-17T23:07:21.194Z,3.47
2022-08-17T23:09:48.036Z,3.33
2022-08-17T23:12:18.369Z,3.13
2022-08-17T23:14:51.249Z,3.53
2022-08-17T23:17:18.023Z,3.40
2022-08-17T23:19:44.986Z,3.47
2022-08-17T23:22:12.124Z,3.63
2022-08-17T23:24:43.999Z,3.72
2022-08-17T23:27:11.473Z,2.85
2022-08-17T23:29:41.443Z,3.28
2022-08-17T23:32:11.097Z,3.38
2022-08-17T23:34:39.713Z,3.10
2022-08-17T23:37:07.564Z,3.20
2022-08-17T23:39:34.964Z,3.38
2022-08-17T23:42:07.963Z,3.15
2022-08-17T23:44:36.940Z,2.55
2022-08-17T23:47:04.791Z,3.10
2022-08-17T23:49:32.263Z,2.83
2022-08-17T23:52:01.420Z,2.75
2022-08-17T23:54:33.417Z,2.72
2022-08-17T23:57:04.318Z,2.63
2022-08-17T23:59:31.620Z,2.40
